Погода Эпупана неделю

Карас, Намибия

20 - 26 июля
  • 20июля
    Сегодня
    +9°
    +28°
    Ясно и безоблачно
    ВремяПогодаТемператураВлажностьДавлениеВетер, м/сВероятность осадков
    02:00Ясно и безоблачно+12°C41 %678 мм0.5 м/с1 %
    05:00Ясно и безоблачно+11°C43 %676 мм1.3 м/с1 %
    08:00Ясно и безоблачно+10°C43 %677 мм1.0 м/с1 %
    11:00Ясно и безоблачно+20°C22 %680 мм1.0 м/с1 %
    14:00Ясно и безоблачно+27°C11 %679 мм2.2 м/с1 %
    17:00Ясно и безоблачно+28°C10 %678 мм2.9 м/с1 %
    20:00Ясно и безоблачно+20°C15 %677 мм3.2 м/с1 %
    23:00Ясно и безоблачно+15°C29 %677 мм1.5 м/с1 %
  • 21июля
    Воскресенье
    +11°
    +33°
    Ясно и безоблачно
    ВремяПогодаТемператураВлажностьДавлениеВетер, м/сВероятность осадков
    02:00Ясно и безоблачно+12°C33 %676 мм1.7 м/с1 %
    05:00Ясно и безоблачно+10°C28 %674 мм3.5 м/с1 %
    08:00Ясно и безоблачно+11°C25 %675 мм4.5 м/с1 %
    11:00Ясно и безоблачно+26°C11 %680 мм2.8 м/с1 %
    14:00Ясно и безоблачно+32°C7 %679 мм3.1 м/с1 %
    17:00Ясно и безоблачно+31°C6 %677 мм3.6 м/с1 %
    20:00Небольшая облачность+22°C21 %677 мм2.8 м/с1 %
    23:00Небольшая облачность+16°C37 %677 мм1.2 м/с1 %
  • 22июля
    Понедельник
    +9°
    +33°
    Ясно и безоблачно
    ВремяПогодаТемператураВлажностьДавлениеВетер, м/сВероятность осадков
    02:00Ясно и безоблачно+12°C41 %676 мм2.4 м/с1 %
    05:00Ясно и безоблачно+11°C39 %675 мм2.4 м/с1 %
    08:00Ясно и безоблачно+11°C33 %676 мм3.4 м/с1 %
    11:00Ясно и безоблачно+26°C14 %681 мм1.9 м/с1 %
    14:00Ясно и безоблачно+31°C9 %680 мм0.9 м/с1 %
    17:00Ясно и безоблачно+32°C7 %679 мм2.7 м/с1 %
    20:00Ясно и безоблачно+23°C13 %678 мм3.8 м/с1 %
    23:00Практически безоблачно+18°C20 %678 мм2.1 м/с1 %
  • 23июля
    Вторник
    +10°
    +33°
    Ясно и безоблачно
    ВремяПогодаТемператураВлажностьДавлениеВетер, м/сВероятность осадков
    02:00Ясно и безоблачно+18°C19 %678 мм1.5 м/с1 %
    05:00Ясно и безоблачно+13°C23 %677 мм3.6 м/с1 %
    08:00Ясно и безоблачно+10°C26 %677 мм3.6 м/с1 %
    11:00Ясно и безоблачно+27°C11 %682 мм0.4 м/с1 %
    14:00Ясно и безоблачно+33°C7 %681 мм2.3 м/с1 %
    17:00Ясно и безоблачно+32°C6 %680 мм4.1 м/с1 %
    20:00Ясно и безоблачно+22°C16 %679 мм3.9 м/с1 %
    23:00Ясно и безоблачно+19°C21 %679 мм0.4 м/с1 %
Мы используем cookies
Соглашаюсь